Time;durP1;ratioP1;P1;durP2;ratioP2;P2;SDS_P1;SDS_P2;PMS_P1;PMS_P2;Temp;Humidity;BMP_temperature;BMP_pressure;BME280_temperature;BME280_humidity;BME280_pressure;Samples;Min_cycle;Max_cycle;Signal;HPM_P1;HPM_P2
2022/07/24 00:00:16;;;;;;;19.27;11.70;;;22.80;1.00;;;;;;5092636;28;20370;-53
2022/07/24 00:02:42;;;;;;;17.27;11.30;;;22.90;1.00;;;;;;5091747;28;20382;-54
2022/07/24 00:05:08;;;;;;;16.57;10.93;;;22.80;1.00;;;;;;5092315;28;20370;-53
2022/07/24 00:07:36;;;;;;;18.02;12.00;;;22.80;1.00;;;;;;5091842;28;20378;-58
2022/07/24 00:10:06;;;;;;;16.75;10.90;;;22.80;99.90;;;;;;5092075;28;20735;-56
2022/07/24 00:12:32;;;;;;;19.10;11.50;;;22.80;99.90;;;;;;5092195;28;20458;-60
2022/07/24 00:14:57;;;;;;;18.35;12.35;;;22.80;1.00;;;;;;5092030;28;20449;-53
2022/07/24 00:17:23;;;;;;;17.10;11.80;;;22.70;1.00;;;;;;5092258;28;20370;-53
2022/07/24 00:19:48;;;;;;;19.30;13.50;;;22.70;1.00;;;;;;5091445;28;20382;-53
2022/07/24 00:22:14;;;;;;;19.40;12.43;;;22.60;1.00;;;;;;5092487;28;20439;-53
2022/07/24 00:24:40;;;;;;;16.83;12.18;;;22.70;99.90;;;;;;5091491;28;20535;-56
2022/07/24 00:27:06;;;;;;;18.25;12.43;;;22.70;99.90;;;;;;5091970;28;20409;-53
2022/07/24 00:29:32;;;;;;;19.80;13.10;;;22.70;99.90;;;;;;5091359;28;20409;-60
2022/07/24 00:31:57;;;;;;;18.70;12.30;;;22.70;99.90;;;;;;5091876;28;20374;-53
2022/07/24 00:34:23;;;;;;;20.00;12.77;;;22.60;99.90;;;;;;5091007;28;20374;-53
2022/07/24 00:36:49;;;;;;;17.20;12.40;;;22.60;99.90;;;;;;5091163;28;21137;-53
2022/07/24 00:39:14;;;;;;;19.80;12.88;;;22.60;99.90;;;;;;5092038;28;20466;-53
2022/07/24 00:41:40;;;;;;;20.10;13.60;;;22.50;1.00;;;;;;5091202;28;20386;-53
2022/07/24 00:44:08;;;;;;;20.75;12.70;;;22.50;1.00;;;;;;5091854;28;20423;-53
2022/07/24 00:46:35;;;;;;;22.45;13.13;;;22.50;1.00;;;;;;5091633;28;20378;-59
2022/07/24 00:49:01;;;;;;;19.10;12.60;;;22.40;99.90;;;;;;5091869;28;20461;-53
2022/07/24 00:51:27;;;;;;;20.15;13.30;;;22.40;54.20;;;;;;5091846;28;20378;-53
2022/07/24 00:53:53;;;;;;;18.90;13.63;;;22.40;99.90;;;;;;5091126;28;21030;-53
2022/07/24 00:56:18;;;;;;;20.92;13.38;;;22.40;99.90;;;;;;5091539;28;20393;-54
2022/07/24 00:58:46;;;;;;;20.60;14.00;;;22.30;1.00;;;;;;5090972;28;20390;-53
2022/07/24 01:01:12;;;;;;;20.60;13.82;;;22.20;1.00;;;;;;5091550;28;20404;-54
2022/07/24 01:03:38;;;;;;;22.40;13.85;;;22.10;99.90;;;;;;5090858;28;20835;-54
2022/07/24 01:06:06;;;;;;;19.60;13.00;;;22.00;1.00;;;;;;5091299;28;20427;-53
2022/07/24 01:08:34;;;;;;;20.83;14.07;;;21.90;10.30;;;;;;5091221;28;20406;-59
2022/07/24 01:11:01;;;;;;;20.90;13.90;;;21.80;99.90;;;;;;5089922;28;20390;-53
2022/07/24 01:13:28;;;;;;;20.45;13.48;;;21.70;1.00;;;;;;5091523;28;20387;-53
2022/07/24 01:15:54;;;;;;;20.42;14.25;;;21.50;99.90;;;;;;5090552;28;20384;-54
2022/07/24 01:18:19;;;;;;;18.70;13.53;;;21.50;99.90;;;;;;5091276;28;20472;-53
2022/07/24 01:20:47;;;;;;;21.42;14.00;;;21.40;99.90;;;;;;5090414;28;20438;-53
2022/07/24 01:23:13;;;;;;;21.13;13.48;;;21.40;1.00;;;;;;5091259;28;20374;-53
2022/07/24 01:25:39;;;;;;;21.65;14.18;;;21.40;99.90;;;;;;5090560;28;20477;-53
2022/07/24 01:28:05;;;;;;;23.10;13.88;;;21.40;99.90;;;;;;5090700;28;20406;-56
2022/07/24 01:30:31;;;;;;;19.58;13.85;;;21.30;99.90;;;;;;5090917;28;20482;-54
2022/07/24 01:32:57;;;;;;;18.85;13.38;;;21.30;99.90;;;;;;5090537;28;20473;-53
2022/07/24 01:35:23;;;;;;;20.10;13.18;;;21.30;99.90;;;;;;5089849;28;20386;-53
2022/07/24 01:37:48;;;;;;;20.57;13.70;;;21.30;99.90;;;;;;5090297;28;20374;-57
2022/07/24 01:40:14;;;;;;;19.03;12.60;;;21.30;99.90;;;;;;5090943;28;20382;-53
2022/07/24 01:42:39;;;;;;;19.50;12.93;;;21.30;99.90;;;;;;5090158;28;20771;-53
2022/07/24 01:45:06;;;;;;;19.52;12.77;;;21.30;99.90;;;;;;5090727;28;20382;-53
2022/07/24 01:47:31;;;;;;;16.90;11.90;;;21.30;99.90;;;;;;5090850;28;20847;-56
2022/07/24 01:49:57;;;;;;;18.30;12.63;;;21.30;1.00;;;;;;5089752;28;20417;-53
2022/07/24 01:52:25;;;;;;;19.73;11.80;;;21.40;1.00;;;;;;5090929;28;20386;-55
2022/07/24 01:54:53;;;;;;;19.25;12.20;;;21.50;99.90;;;;;;5089766;28;20420;-53
2022/07/24 01:57:19;;;;;;;20.45;12.93;;;21.50;99.90;;;;;;5090769;28;20867;-53
2022/07/24 01:59:45;;;;;;;18.13;12.53;;;21.50;99.90;;;;;;5089936;28;20428;-57
2022/07/24 02:02:11;;;;;;;19.65;12.88;;;21.40;99.90;;;;;;5090690;28;20388;-53
2022/07/24 02:04:36;;;;;;;18.47;11.60;;;21.20;99.90;;;;;;5089522;28;21176;-54
2022/07/24 02:07:03;;;;;;;18.93;12.53;;;21.30;1.00;;;;;;5090575;28;20393;-53
2022/07/24 02:09:28;;;;;;;19.67;12.55;;;21.30;62.00;;;;;;5090530;28;20482;-53
2022/07/24 02:11:54;;;;;;;18.10;11.93;;;21.30;99.90;;;;;;5089661;28;20461;-53
2022/07/24 02:14:20;;;;;;;18.90;12.63;;;21.10;1.00;;;;;;5090557;28;20416;-53
2022/07/24 02:16:45;;;;;;;20.33;12.83;;;21.10;99.90;;;;;;5089683;28;20855;-53
2022/07/24 02:19:11;;;;;;;19.52;12.30;;;21.10;99.90;;;;;;5090240;28;20378;-53
2022/07/24 02:21:37;;;;;;;19.75;13.60;;;21.00;99.90;;;;;;5089467;28;20370;-53
2022/07/24 02:24:03;;;;;;;19.35;12.98;;;20.90;1.00;;;;;;5090166;28;20451;-53
2022/07/24 02:26:29;;;;;;;18.23;13.63;;;20.80;99.90;;;;;;5090202;28;20421;-53
2022/07/24 02:28:55;;;;;;;21.02;12.90;;;20.80;99.90;;;;;;5089674;28;20418;-54
2022/07/24 02:31:21;;;;;;;18.92;13.20;;;20.80;99.90;;;;;;5090340;28;20484;-53
2022/07/24 02:33:47;;;;;;;20.05;14.07;;;20.70;99.90;;;;;;5089268;28;20410;-53
2022/07/24 02:36:13;;;;;;;20.00;13.65;;;20.60;1.00;;;;;;5090169;28;20417;-53
2022/07/24 02:38:39;;;;;;;21.07;14.40;;;20.50;1.00;;;;;;5089258;28;20434;-54
2022/07/24 02:41:04;;;;;;;20.67;14.38;;;20.50;1.00;;;;;;5089948;28;20385;-53
2022/07/24 02:43:30;;;;;;;20.23;13.87;;;20.50;9.70;;;;;;5090192;28;20378;-53
2022/07/24 02:45:56;;;;;;;22.03;13.87;;;20.40;99.90;;;;;;5088825;28;20377;-53
2022/07/24 02:48:21;;;;;;;20.60;14.53;;;20.30;99.90;;;;;;5089748;28;20406;-54
2022/07/24 02:50:47;;;;;;;21.35;13.38;;;20.30;99.90;;;;;;5089113;28;20397;-53
2022/07/24 02:53:13;;;;;;;19.60;13.93;;;20.30;99.90;;;;;;5089807;28;20378;-53
2022/07/24 02:55:39;;;;;;;21.63;14.00;;;20.20;99.90;;;;;;5089792;28;20396;-53
2022/07/24 02:58:04;;;;;;;21.15;14.23;;;20.20;99.90;;;;;;5095964;28;20901;-53
2022/07/24 03:00:30;;;;;;;20.83;14.23;;;20.10;99.90;;;;;;5096343;28;20743;-53
2022/07/24 03:02:56;;;;;;;22.30;13.90;;;20.10;1.00;;;;;;5095666;28;20374;-53
2022/07/24 03:05:22;;;;;;;19.70;13.70;;;20.10;1.00;;;;;;5096309;28;20377;-53
2022/07/24 03:07:48;;;;;;;20.98;14.50;;;20.10;1.00;;;;;;5095763;28;20912;-53
2022/07/24 03:10:14;;;;;;;23.88;15.30;;;20.10;1.00;;;;;;5096193;28;20413;-56
2022/07/24 03:12:41;;;;;;;21.60;14.70;;;20.10;1.00;;;;;;5095758;28;20385;-53
2022/07/24 03:15:07;;;;;;;20.73;14.10;;;20.10;99.90;;;;;;5096397;28;20373;-55
2022/07/24 03:17:33;;;;;;;22.83;14.50;;;20.10;99.90;;;;;;5096228;28;20410;-53
2022/07/24 03:19:59;;;;;;;21.60;13.90;;;20.10;1.00;;;;;;5095830;28;20413;-55
2022/07/24 03:22:24;;;;;;;21.83;14.40;;;20.00;1.00;;;;;;5096491;28;20413;-53
2022/07/24 03:24:50;;;;;;;23.27;15.40;;;20.10;1.00;;;;;;5095592;28;20389;-53
2022/07/24 03:27:16;;;;;;;21.23;14.67;;;20.10;99.90;;;;;;5095865;28;20485;-53
2022/07/24 03:29:41;;;;;;;24.63;15.87;;;20.10;99.90;;;;;;5095329;28;20420;-53
2022/07/24 03:32:07;;;;;;;21.50;15.35;;;20.10;99.90;;;;;;5096315;28;20388;-54
2022/07/24 03:34:32;;;;;;;20.92;14.88;;;20.00;99.90;;;;;;5096342;28;20398;-53
2022/07/24 03:36:58;;;;;;;23.40;14.60;;;19.90;99.90;;;;;;5095404;28;20431;-53
2022/07/24 03:39:24;;;;;;;21.47;14.70;;;19.70;1.00;;;;;;5095961;28;20385;-53
2022/07/24 03:41:49;;;;;;;21.63;14.40;;;19.60;1.00;;;;;;5095376;28;20378;-53
2022/07/24 03:44:15;;;;;;;21.30;13.70;;;19.60;1.00;;;;;;5096086;28;20401;-53
2022/07/24 03:46:41;;;;;;;21.65;13.50;;;19.60;1.00;;;;;;5095382;28;20397;-54
2022/07/24 03:49:06;;;;;;;22.27;14.40;;;19.50;1.00;;;;;;5095832;28;20913;-55
2022/07/24 03:51:34;;;;;;;19.60;14.07;;;19.50;1.00;;;;;;5095685;28;20405;-55
2022/07/24 03:54:00;;;;;;;19.08;13.43;;;19.50;1.00;;;;;;5095544;28;20459;-55
2022/07/24 03:56:26;;;;;;;22.02;14.18;;;19.50;1.00;;;;;;5096105;28;20863;-55
2022/07/24 03:58:52;;;;;;;23.70;15.63;;;19.60;1.00;;;;;;5095347;28;20596;-55
2022/07/24 04:01:18;;;;;;;20.60;13.83;;;19.60;1.00;;;;;;5096122;28;20374;-55
2022/07/24 04:03:44;;;;;;;20.63;14.25;;;19.60;1.00;;;;;;5093945;28;20442;-55
2022/07/24 04:06:09;;;;;;;21.70;15.00;;;19.60;1.00;;;;;;5095792;28;20385;-55
2022/07/24 04:08:35;;;;;;;22.37;14.53;;;19.60;1.00;;;;;;5093586;28;20410;-60
2022/07/24 04:11:01;;;;;;;21.77;14.27;;;19.60;1.00;;;;;;5090725;28;20841;-55
2022/07/24 04:13:29;;;;;;;19.00;13.50;;;19.60;1.00;;;;;;5092364;28;20378;-52
2022/07/24 04:15:56;;;;;;;21.33;14.33;;;19.80;1.00;;;;;;5092024;28;20422;-52
2022/07/24 04:18:22;;;;;;;23.38;14.68;;;19.90;1.00;;;;;;5092570;28;20382;-52
2022/07/24 04:20:48;;;;;;;21.70;15.20;;;19.90;1.00;;;;;;5091814;28;20394;-55
2022/07/24 04:23:14;;;;;;;21.55;14.80;;;19.90;1.00;;;;;;5092708;28;20378;-54
2022/07/24 04:25:40;;;;;;;20.77;14.90;;;20.00;1.00;;;;;;5091789;28;20386;-55
2022/07/24 04:28:06;;;;;;;21.95;15.40;;;20.00;1.00;;;;;;5092287;28;20471;-54
2022/07/24 04:30:31;;;;;;;22.07;14.60;;;20.00;1.00;;;;;;5092463;28;20389;-55
2022/07/24 04:32:57;;;;;;;21.13;14.43;;;19.90;1.00;;;;;;5091204;28;20637;-55
2022/07/24 04:35:23;;;;;;;21.13;13.88;;;20.00;1.00;;;;;;5091981;28;20408;-55
2022/07/24 04:37:49;;;;;;;20.63;14.40;;;20.20;1.00;;;;;;5091472;28;20378;-57
2022/07/24 04:40:14;;;;;;;22.13;14.00;;;20.40;1.00;;;;;;5092240;28;20840;-54
2022/07/24 04:42:40;;;;;;;20.13;13.68;;;20.50;1.00;;;;;;5091395;28;20378;-61
2022/07/24 04:45:08;;;;;;;21.13;14.27;;;20.40;1.00;;;;;;5092052;28;20378;-54
2022/07/24 04:47:34;;;;;;;20.50;14.07;;;20.40;1.00;;;;;;5091926;28;20375;-54
2022/07/24 04:50:02;;;;;;;18.95;13.20;;;20.50;1.00;;;;;;5091165;28;20398;-55
2022/07/24 04:52:27;;;;;;;19.95;13.93;;;20.70;1.00;;;;;;5091853;28;20378;-54
2022/07/24 04:54:53;;;;;;;23.42;15.25;;;20.80;1.00;;;;;;5090879;28;20874;-54
2022/07/24 04:57:19;;;;;;;22.80;15.97;;;20.90;99.90;;;;;;5091835;28;20444;-54
2022/07/24 04:59:44;;;;;;;20.90;14.30;;;21.10;99.90;;;;;;5089759;28;20401;-53
2022/07/24 05:02:10;;;;;;;20.77;14.23;;;21.20;99.90;;;;;;5091432;28;20382;-52
2022/07/24 05:04:36;;;;;;;22.42;15.15;;;21.30;99.90;;;;;;5091364;28;20874;-52
2022/07/24 05:07:02;;;;;;;20.45;13.90;;;21.60;99.90;;;;;;5090990;28;20374;-52
2022/07/24 05:09:28;;;;;;;21.17;13.90;;;22.60;1.00;;;;;;5091615;28;20860;-55
2022/07/24 05:11:54;;;;;;;19.07;13.73;;;23.70;1.00;;;;;;5090855;28;20397;-55
2022/07/24 05:14:20;;;;;;;19.55;12.88;;;24.30;56.10;;;;;;5091639;28;20390;-55
2022/07/24 05:16:46;;;;;;;17.75;12.25;;;25.10;99.90;;;;;;5090766;28;20374;-55
2022/07/24 05:19:12;;;;;;;17.55;12.63;;;25.90;1.00;;;;;;5090958;28;20382;-53
2022/07/24 05:21:37;;;;;;;16.80;12.80;;;26.70;1.00;;;;;;5091145;28;20370;-59
2022/07/24 05:24:03;;;;;;;17.47;12.77;;;27.60;1.00;;;;;;5090590;28;20404;-52
2022/07/24 05:26:31;;;;;;;15.67;12.07;;;28.40;99.90;;;;;;5090996;28;20801;-53
2022/07/24 05:29:01;;;;;;;16.08;11.27;;;28.60;99.90;;;;;;5090483;28;20862;-53
2022/07/24 05:31:27;;;;;;;17.13;13.40;;;28.90;99.90;;;;;;5091263;28;20431;-53
2022/07/24 05:33:53;;;;;;;18.67;13.70;;;28.90;99.90;;;;;;5090383;28;20374;-53
2022/07/24 05:36:20;;;;;;;18.40;13.40;;;28.80;99.90;;;;;;5091159;28;20387;-52
2022/07/24 05:38:46;;;;;;;18.70;13.35;;;29.30;99.90;;;;;;5090337;28;20406;-55
2022/07/24 05:41:12;;;;;;;18.65;12.90;;;30.00;99.90;;;;;;5090603;28;20913;-55
2022/07/24 05:43:38;;;;;;;19.65;15.00;;;30.80;99.90;;;;;;5091125;28;20386;-62
2022/07/24 05:46:04;;;;;;;19.30;14.90;;;31.00;99.90;;;;;;5090234;28;20453;-55
2022/07/24 05:48:29;;;;;;;18.90;14.23;;;31.30;99.90;;;;;;5090663;28;20513;-56
2022/07/24 05:50:56;;;;;;;18.33;15.00;;;31.30;99.90;;;;;;5090036;28;20396;-52
2022/07/24 05:53:21;;;;;;;21.10;15.10;;;31.90;99.90;;;;;;5090636;28;20401;-53
2022/07/24 05:55:47;;;;;;;22.05;14.73;;;31.50;99.90;;;;;;5089963;28;20851;-55
2022/07/24 05:58:13;;;;;;;22.00;16.15;;;30.60;99.90;;;;;;5090400;28;20890;-55
2022/07/24 06:00:39;;;;;;;20.40;15.80;;;30.40;99.90;;;;;;5090537;28;20413;-62
2022/07/24 06:03:04;;;;;;;19.00;14.90;;;30.40;99.90;;;;;;5090486;28;20779;-55
2022/07/24 06:05:30;;;;;;;18.60;14.80;;;30.30;99.90;;;;;;5082735;28;20451;-55
2022/07/24 06:07:56;;;;;;;21.80;14.65;;;30.20;99.90;;;;;;5081648;28;20374;-56
2022/07/24 06:10:21;;;;;;;20.23;14.48;;;31.20;99.90;;;;;;5077399;28;20408;-54
2022/07/24 06:12:47;;;;;;;20.13;15.75;;;31.20;99.90;;;;;;5069403;28;20384;-54
2022/07/24 06:15:13;;;;;;;19.67;14.60;;;31.10;99.90;;;;;;5087466;28;20418;-54
2022/07/24 06:17:39;;;;;;;18.42;14.02;;;31.60;99.90;;;;;;5090316;28;20842;-60
2022/07/24 06:20:06;;;;;;;17.40;14.50;;;32.10;99.90;;;;;;5089610;28;20386;-55
2022/07/24 06:22:32;;;;;;;19.27;14.85;;;32.40;99.90;;;;;;5083159;28;20441;-55
2022/07/24 06:24:58;;;;;;;19.67;14.93;;;33.00;99.90;;;;;;5069109;28;20387;-55
2022/07/24 06:27:23;;;;;;;21.42;16.08;;;33.30;99.90;;;;;;5069663;28;20487;-54
2022/07/24 06:29:49;;;;;;;18.10;15.60;;;33.80;99.90;;;;;;5069302;28;20404;-55
2022/07/24 06:32:14;;;;;;;20.70;15.87;;;34.30;99.90;;;;;;5069018;28;20733;-60
2022/07/24 06:34:40;;;;;;;18.08;15.32;;;34.10;99.90;;;;;;5069166;28;20860;-61
2022/07/24 06:37:06;;;;;;;17.40;14.87;;;34.40;99.90;;;;;;5068799;28;20729;-55
2022/07/24 06:39:31;;;;;;;19.23;17.23;;;34.40;99.90;;;;;;5076477;28;20390;-55
2022/07/24 06:41:57;;;;;;;18.40;16.23;;;35.00;99.90;;;;;;5089109;28;20403;-55
2022/07/24 06:44:23;;;;;;;17.58;14.70;;;35.00;99.90;;;;;;5090241;28;20386;-55
2022/07/24 06:46:49;;;;;;;18.43;15.80;;;35.00;99.90;;;;;;5089336;28;20382;-56
2022/07/24 06:49:14;;;;;;;19.30;16.17;;;36.00;99.90;;;;;;5089689;28;20886;-56
2022/07/24 06:51:40;;;;;;;17.83;13.60;;;36.50;99.90;;;;;;5088684;28;20451;-62
2022/07/24 06:54:06;;;;;;;18.88;13.50;;;35.60;99.90;;;;;;5089509;28;20373;-55
2022/07/24 06:56:31;;;;;;;16.37;13.00;;;35.40;99.90;;;;;;5089929;28;20396;-55
2022/07/24 06:58:59;;;;;;;18.50;15.40;;;36.00;99.90;;;;;;5089004;28;20766;-55
2022/07/24 07:01:25;;;;;;;17.55;15.65;;;35.90;99.90;;;;;;5089846;28;20389;-55
2022/07/24 07:03:53;;;;;;;16.70;12.25;;;36.40;99.90;;;;;;5088941;28;20374;-55
2022/07/24 07:06:18;;;;;;;15.15;12.52;;;36.80;1.00;;;;;;5089405;28;20374;-55
2022/07/24 07:08:44;;;;;;;16.02;13.10;;;37.10;1.00;;;;;;5089163;28;20790;-55
2022/07/24 07:11:10;;;;;;;17.40;11.98;;;36.00;1.00;;;;;;5089722;28;20378;-55
2022/07/24 07:13:36;;;;;;;15.85;11.73;;;36.10;1.00;;;;;;5083302;28;20387;-55
2022/07/24 07:16:02;;;;;;;17.13;11.70;;;;;;;;;;5068629;28;20384;-55
2022/07/24 07:18:28;;;;;;;16.47;12.80;;;;;;;;;;5069410;28;20375;-55
2022/07/24 07:20:53;;;;;;;14.70;12.30;;;37.40;99.90;;;;;;5068344;28;20368;-56
2022/07/24 07:23:23;;;;;;;15.85;12.75;;;37.20;99.90;;;;;;5069458;28;20471;-55
2022/07/24 07:25:49;;;;;;;14.82;12.05;;;37.70;99.90;;;;;;5068343;28;20379;-55
2022/07/24 07:28:15;;;;;;;17.20;10.82;;;38.10;99.90;;;;;;5068651;28;20411;-55
2022/07/24 07:30:41;;;;;;;14.93;12.50;;;38.00;99.90;;;;;;5069110;28;20384;-62
2022/07/24 07:33:07;;;;;;;14.73;11.53;;;38.10;99.90;;;;;;5068773;28;20425;-56
2022/07/24 07:35:32;;;;;;;17.25;15.65;;;37.90;99.90;;;;;;5069170;28;20419;-55
2022/07/24 07:37:58;;;;;;;14.10;12.53;;;37.10;99.90;;;;;;5068290;28;20412;-55
2022/07/24 07:40:25;;;;;;;14.02;12.52;;;36.90;99.90;;;;;;5069489;28;20733;-55
2022/07/24 07:42:50;;;;;;;15.32;12.32;;;37.30;99.90;;;;;;5069918;28;20395;-55
2022/07/24 07:45:16;;;;;;;14.90;10.40;;;37.40;99.90;;;;;;5072958;28;20467;-56
2022/07/24 07:47:42;;;;;;;13.77;10.13;;;37.80;99.90;;;;;;5072343;28;20950;-62
2022/07/24 07:50:08;;;;;;;13.25;9.13;;;38.20;99.90;;;;;;5072854;28;20404;-55
2022/07/24 07:52:34;;;;;;;14.23;9.52;;;38.50;99.90;;;;;;5072473;28;20383;-56
2022/07/24 07:55:00;;;;;;;13.20;10.60;;;39.00;99.90;;;;;;5072117;28;20968;-55
2022/07/24 07:57:25;;;;;;;14.38;10.40;;;39.90;99.90;;;;;;5072297;28;20417;-56
2022/07/24 07:59:51;;;;;;;11.40;8.90;;;40.00;99.90;;;;;;5071952;28;20790;-56
2022/07/24 08:02:17;;;;;;;12.10;9.70;;;;;;;;;;5072347;28;20387;-55
2022/07/24 08:04:42;;;;;;;13.68;11.95;;;40.90;1.00;;;;;;5072087;28;20368;-63
2022/07/24 08:07:08;;;;;;;15.90;14.00;;;41.80;99.90;;;;;;5072262;28;20384;-55
2022/07/24 08:09:34;;;;;;;14.60;9.73;;;40.90;99.90;;;;;;5072472;28;20806;-55
2022/07/24 08:11:59;;;;;;;13.77;12.27;;;40.00;99.90;;;;;;5071602;28;20384;-55
2022/07/24 08:14:25;;;;;;;14.32;13.02;;;40.50;99.90;;;;;;5085573;28;20381;-56
2022/07/24 08:16:51;;;;;;;12.10;8.80;;;40.70;99.90;;;;;;5091736;28;20798;-56
2022/07/24 08:19:16;;;;;;;14.13;12.40;;;39.90;99.90;;;;;;5092670;28;20480;-56
2022/07/24 08:21:42;;;;;;;15.50;12.37;;;38.70;99.90;;;;;;5092203;28;20378;-62
2022/07/24 08:24:08;;;;;;;14.20;12.70;;;38.30;99.90;;;;;;5091780;28;20378;-55
2022/07/24 08:26:33;;;;;;;12.60;11.25;;;38.20;99.90;;;;;;5092393;28;20735;-57
2022/07/24 08:28:59;;;;;;;13.70;12.07;;;38.00;99.90;;;;;;5091233;28;20450;-55
2022/07/24 08:31:28;;;;;;;12.73;9.70;;;39.60;99.90;;;;;;5092255;28;20389;-57
2022/07/24 08:33:54;;;;;;;13.43;9.40;;;40.30;99.90;;;;;;5091094;28;20374;-56
2022/07/24 08:36:19;;;;;;;13.90;9.37;;;41.20;99.90;;;;;;5092571;28;20386;-56
2022/07/24 08:38:45;;;;;;;11.90;9.60;;;41.90;99.90;;;;;;5091223;28;20387;-62
2022/07/24 08:41:12;;;;;;;13.67;9.60;;;42.10;99.90;;;;;;5090960;28;20739;-59
2022/07/24 08:43:38;;;;;;;12.77;9.90;;;42.80;99.90;;;;;;5092155;28;20382;-56
2022/07/24 08:46:06;;;;;;;12.50;9.43;;;42.10;99.90;;;;;;5091692;28;20376;-56
2022/07/24 08:48:33;;;;;;;10.95;9.00;;;41.80;99.90;;;;;;5091677;28;20386;-56
2022/07/24 08:50:59;;;;;;;11.48;9.38;;;42.00;99.90;;;;;;5091165;28;20916;-56
2022/07/24 08:53:24;;;;;;;11.68;9.85;;;41.40;99.90;;;;;;5091566;28;20382;-56
2022/07/24 08:55:50;;;;;;;11.90;9.60;;;41.50;99.90;;;;;;5090080;28;20906;-56
2022/07/24 08:58:16;;;;;;;12.50;10.20;;;42.20;99.90;;;;;;5092023;28;20735;-55
2022/07/24 09:00:42;;;;;;;11.60;8.90;;;42.30;99.90;;;;;;5091771;28;20396;-61
2022/07/24 09:03:07;;;;;;;12.65;9.73;;;41.30;99.90;;;;;;5091110;28;20521;-59
2022/07/24 09:05:36;;;;;;;12.15;9.70;;;40.70;99.90;;;;;;5091052;28;20702;-56
2022/07/24 09:08:14;;;;;;;12.25;9.18;;;40.90;99.90;;;;;;5091403;28;20843;-56
2022/07/24 09:10:40;;;;;;;14.18;12.65;;;41.20;99.90;;;;;;5091612;28;20784;-58
2022/07/24 09:13:16;;;;;;;13.05;11.65;;;40.20;99.90;;;;;;5088977;28;20378;-55
2022/07/24 09:15:47;;;;;;;13.10;11.00;;;40.10;99.90;;;;;;5070766;28;20387;-62
2022/07/24 09:18:33;;;;;;;13.13;10.97;;;40.40;99.90;;;;;;5071354;28;20382;-56
2022/07/24 09:21:13;;;;;;;12.73;10.30;;;40.10;99.90;;;;;;5070160;28;20710;-53
2022/07/24 09:23:41;;;;;;;14.15;12.68;;;39.70;99.90;;;;;;5070809;28;20388;-55
2022/07/24 09:26:07;;;;;;;13.10;11.80;;;39.50;99.90;;;;;;5070539;28;20387;-55
2022/07/24 09:28:53;;;;;;;13.52;11.27;;;38.40;99.90;;;;;;5071045;28;20400;-58
2022/07/24 09:31:22;;;;;;;13.18;11.77;;;39.20;99.90;;;;;;5071019;28;20411;-55
2022/07/24 09:33:48;;;;;;;15.10;11.90;;;39.10;99.90;;;;;;5070194;28;20395;-55
2022/07/24 09:36:16;;;;;;;13.77;11.45;;;38.20;99.90;;;;;;5070425;28;20465;-55
2022/07/24 09:38:48;;;;;;;14.05;12.60;;;38.60;99.90;;;;;;5070805;28;20459;-55
2022/07/24 09:41:27;;;;;;;13.50;10.73;;;39.20;99.90;;;;;;5070691;28;20445;-55
2022/07/24 09:44:01;;;;;;;12.25;10.90;;;39.30;99.90;;;;;;5069925;28;20375;-55
2022/07/24 09:46:27;;;;;;;12.70;11.32;;;38.80;99.90;;;;;;5070511;28;20380;-56
2022/07/24 09:48:57;;;;;;;12.80;11.40;;;39.80;99.90;;;;;;5069570;28;20400;-55
2022/07/24 09:51:25;;;;;;;14.03;12.53;;;40.70;99.90;;;;;;5070621;28;20744;-55
2022/07/24 09:53:57;;;;;;;14.73;12.35;;;39.20;99.90;;;;;;5069655;28;20390;-56
2022/07/24 09:56:24;;;;;;;13.40;12.05;;;39.30;99.90;;;;;;5070242;28;20418;-55
2022/07/24 09:58:52;;;;;;;12.15;10.70;;;40.50;99.90;;;;;;5068429;28;20399;-56
2022/07/24 10:01:23;;;;;;;12.85;11.55;;;41.00;99.90;;;;;;5070219;28;20379;-55
2022/07/24 10:03:52;;;;;;;11.47;9.63;;;41.40;99.90;;;;;;5069425;28;20430;-55
2022/07/24 10:06:25;;;;;;;10.48;8.70;;;40.50;99.90;;;;;;5069801;28;20376;-55
2022/07/24 10:08:52;;;;;;;10.38;9.10;;;41.00;99.90;;;;;;5069461;28;20400;-55
2022/07/24 10:11:18;;;;;;;11.10;9.90;;;39.70;99.90;;;;;;5068810;28;20719;-55
2022/07/24 10:13:44;;;;;;;11.35;9.60;;;38.70;99.90;;;;;;5076867;28;20381;-61
2022/07/24 10:16:13;;;;;;;14.32;10.05;;;39.10;99.90;;;;;;5090193;28;20371;-56
2022/07/24 10:18:39;;;;;;;13.70;11.10;;;39.50;99.90;;;;;;5090260;28;20386;-55
2022/07/24 10:21:11;;;;;;;13.43;12.07;;;39.90;99.90;;;;;;5089553;28;20385;-55
2022/07/24 10:24:10;;;;;;;13.30;11.90;;;41.40;99.90;;;;;;5090053;28;20913;-60
2022/07/24 10:26:41;;;;;;;12.90;10.95;;;42.10;99.90;;;;;;5064022;28;20397;-55
2022/07/24 10:29:14;;;;;;;14.13;12.73;;;42.70;99.90;;;;;;5088734;28;20414;-56
2022/07/24 10:31:45;;;;;;;11.50;10.30;;;42.80;99.90;;;;;;5089897;28;20386;-55
2022/07/24 10:34:26;;;;;;;11.43;9.63;;;41.50;99.90;;;;;;5089620;28;20371;-55
2022/07/24 10:37:15;;;;;;;11.87;10.20;;;40.90;99.90;;;;;;5089490;28;20410;-58
2022/07/24 10:39:46;;;;;;;11.65;9.70;;;39.90;99.90;;;;;;5089926;28;20405;-55
2022/07/24 10:42:12;;;;;;;12.88;10.73;;;39.30;99.90;;;;;;5089670;28;20373;-55
2022/07/24 10:44:38;;;;;;;11.77;10.47;;;39.20;99.90;;;;;;5089847;28;20378;-57
2022/07/24 10:47:08;;;;;;;15.38;11.88;;;37.90;99.90;;;;;;5088951;28;20436;-55
2022/07/24 10:49:45;;;;;;;12.10;10.50;;;36.40;99.90;;;;;;5089468;28;20406;-54
2022/07/24 10:52:25;;;;;;;12.93;11.10;;;35.70;99.90;;;;;;5089650;28;20847;-55
2022/07/24 10:55:29;;;;;;;14.85;11.65;;;35.70;99.90;;;;;;5089348;28;20378;-55
2022/07/24 10:58:02;;;;;;;13.05;11.57;;;35.80;99.90;;;;;;5088676;28;20405;-55
2022/07/24 11:00:48;;;;;;;13.45;10.85;;;35.60;99.90;;;;;;5089387;28;20469;-55
2022/07/24 11:03:26;;;;;;;12.85;10.38;;;34.90;99.90;;;;;;5089625;28;20385;-56
2022/07/24 11:06:11;;;;;;;13.80;11.13;;;35.90;99.90;;;;;;5088706;28;20386;-54
2022/07/24 11:08:50;;;;;;;16.08;10.95;;;35.10;99.90;;;;;;5089541;28;20435;-54
2022/07/24 11:11:19;;;;;;;13.90;12.40;;;35.60;99.90;;;;;;5089627;28;20439;-55
2022/07/24 11:13:57;;;;;;;13.93;12.52;;;35.60;99.90;;;;;;5081946;28;20723;-61
2022/07/24 11:16:30;;;;;;;13.50;11.48;;;35.80;99.90;;;;;;5069370;28;20473;-55
2022/07/24 11:18:57;;;;;;;12.90;11.17;;;35.60;99.90;;;;;;5071886;28;20433;-55
2022/07/24 11:21:31;;;;;;;12.18;10.48;;;35.70;99.90;;;;;;5073280;28;20868;-54
2022/07/24 11:24:22;;;;;;;13.82;11.30;;;36.10;99.90;;;;;;5072467;28;20391;-56
2022/07/24 11:26:52;;;;;;;12.00;10.70;;;35.90;99.90;;;;;;5072386;28;20482;-61
2022/07/24 11:29:30;;;;;;;11.90;10.38;;;35.80;99.90;;;;;;5073178;28;20418;-57
2022/07/24 11:32:08;;;;;;;12.35;10.50;;;35.60;99.90;;;;;;5072280;28;21237;-55
2022/07/24 11:34:35;;;;;;;12.40;11.10;;;35.20;99.90;;;;;;5072984;28;20433;-56
2022/07/24 11:37:02;;;;;;;13.02;11.65;;;34.70;99.90;;;;;;5072364;28;20375;-54
2022/07/24 11:39:32;;;;;;;13.95;12.45;;;34.90;99.90;;;;;;5073056;28;20419;-55
2022/07/24 11:42:00;;;;;;;12.83;11.43;;;35.10;99.90;;;;;;5072230;28;20391;-55
2022/07/24 11:44:31;;;;;;;12.57;10.77;;;35.30;99.90;;;;;;5072974;28;20483;-55
2022/07/24 11:47:13;;;;;;;12.30;11.00;;;35.50;99.90;;;;;;5071835;28;20383;-55
2022/07/24 11:49:44;;;;;;;13.48;11.40;;;35.30;99.90;;;;;;5072681;28;20419;-55
2022/07/24 11:52:15;;;;;;;13.75;10.88;;;35.30;99.90;;;;;;5072391;28;20388;-54
2022/07/24 11:54:42;;;;;;;13.05;10.60;;;35.40;99.90;;;;;;5072964;28;20376;-55
2022/07/24 11:57:18;;;;;;;13.80;10.85;;;35.50;99.90;;;;;;5071566;28;20419;-55
2022/07/24 11:59:43;;;;;;;13.00;11.15;;;35.50;99.90;;;;;;5072490;28;20376;-55
2022/07/24 12:02:10;;;;;;;15.07;13.48;;;35.30;99.90;;;;;;5071991;28;20391;-55
2022/07/24 12:04:39;;;;;;;13.20;11.55;;;35.30;99.90;;;;;;5072416;28;20387;-55
2022/07/24 12:07:09;;;;;;;14.30;12.80;;;35.20;99.90;;;;;;5085074;28;20398;-55
2022/07/24 12:09:45;;;;;;;13.60;11.50;;;35.30;99.90;;;;;;5091184;28;20497;-55
2022/07/24 12:12:40;;;;;;;13.18;10.20;;;35.30;99.90;;;;;;5085114;28;20378;-55
2022/07/24 12:15:11;;;;;;;13.68;12.15;;;34.70;99.90;;;;;;5070576;28;20399;-55
2022/07/24 12:17:58;;;;;;;12.18;10.60;;;34.70;99.90;;;;;;5082495;28;20496;-54
2022/07/24 12:20:36;;;;;;;14.27;11.55;;;34.90;99.90;;;;;;5083049;28;20467;-54
2022/07/24 12:23:05;;;;;;;13.35;11.57;;;35.10;99.90;;;;;;5077344;28;20486;-54
2022/07/24 12:25:30;;;;;;;12.90;10.32;;;35.40;99.90;;;;;;5081517;28;20393;-55
2022/07/24 12:28:12;;;;;;;12.77;10.93;;;35.50;99.90;;;;;;5078307;28;20387;-54
2022/07/24 12:30:45;;;;;;;13.57;11.80;;;35.60;99.90;;;;;;5080613;28;20515;-56
2022/07/24 12:33:14;;;;;;;13.40;12.10;;;35.60;99.90;;;;;;5087833;28;20386;-54